Startpagina
METAR-TAF:

METAR-TAF

Vliegvelden :

Arnhem, Nederland

Vliegbasis Deelen

breedte: 52-04N, lengte: 005-53E, hoogte: 48 m

Actueel weer

Dit bericht is 33 minuten geleden gemaakt, om 01:25 UTC
Wind 2 kt uit variabele richting
Temperatuur 12°C
Vochtigheid 100%
Druk 1021 hPa
Zicht: 0200 m
Geheel bewolkt lager dan 100 ft
mist

METAR: EHDL 260125Z AUTO VRB02KT 0200 R20/0100N FG OVC000 12/12 Q1021 RED

Tijdstip: 03:58 (01:58 UTC)


TAF: ontbreekt

Waarnemingen en weersverwachtingen van meer dan 4000 vliegvelden (METAR en TAF).

De beschikbare stations zijn de gele en rode punten op de kaart.

Ga met uw muis naar het station om de naam te zien.

Klik dan om waarnemingen en weersverwachtingen te zien.

kaart wijzigen: klik op de groene knoppen met een zwart kruis om in te zoomen, op de groene knop met een streepje om uit te zoomen of op de groene pijlen voor aangrenzende kaarten.


METAR-TAF: